Time;durP1;ratioP1;P1;durP2;ratioP2;P2;SDS_P1;SDS_P2;PMS_P1;PMS_P2;Temp;Humidity;BMP_temperature;BMP_pressure;BME280_temperature;BME280_humidity;BME280_pressure;Samples;Min_cycle;Max_cycle;Signal;HPM_P1;HPM_P2
2023/01/29 00:01:01;;;;;;;;;;;;;;;21.55;20.02;97858.59;5017595;28;915;-77
2023/01/29 00:03:26;;;;;;;;;;;;;;;21.22;20.35;97861.50;5016925;28;920;-76
2023/01/29 00:05:51;;;;;;;;;;;;;;;21.12;20.61;97871.06;4998885;28;1167;-77
2023/01/29 00:08:17;;;;;;;;;;;;;;;21.08;20.92;97873.19;5017151;28;1024;-77
2023/01/29 00:10:42;;;;;;;;;;;;;;;21.62;19.98;97875.38;5016862;28;886;-77
2023/01/29 00:13:08;;;;;;;;;;;;;;;21.73;20.05;97870.19;5017391;28;914;-76
2023/01/29 00:15:33;;;;;;;;;;;;;;;21.59;20.04;97876.28;5017107;28;858;-76
2023/01/29 00:17:59;;;;;;;;;;;;;;;21.88;19.73;97878.28;5016895;28;1985;-77
2023/01/29 00:20:24;;;;;;;;;;;;;;;21.40;20.13;97874.38;5016317;28;956;-76
2023/01/29 00:22:50;;;;;;;;;;;;;;;21.11;20.75;97869.47;5017098;28;917;-77
2023/01/29 00:25:15;;;;;;;;;;;;;;;21.27;20.76;97877.94;5017081;28;913;-77
2023/01/29 00:27:41;;;;;;;;;;;;;;;21.75;19.88;97873.38;4998034;28;959;-77
2023/01/29 00:30:15;;;;;;;;;;;;;;;21.72;19.88;97868.63;4999503;28;1537;-77
2023/01/29 00:32:40;;;;;;;;;;;;;;;21.85;19.85;97866.59;5016851;28;923;-77
2023/01/29 00:35:06;;;;;;;;;;;;;;;21.43;20.16;97867.84;4997817;28;1019;-77
2023/01/29 00:37:31;;;;;;;;;;;;;;;21.10;20.68;97872.78;4997911;28;1918;-77
2023/01/29 00:39:57;;;;;;;;;;;;;;;21.06;20.94;97872.84;5016856;28;1554;-78
2023/01/29 00:45:07;;;;;;;;;;;;;;;21.46;20.21;97873.41;5016167;28;1015;-77
2023/01/29 00:47:32;;;;;;;;;;;;;;;21.84;19.92;97870.69;5016657;28;955;-77
2023/01/29 00:49:58;;;;;;;;;;;;;;;21.73;19.71;97870.19;5016662;28;950;-77
2023/01/29 00:52:23;;;;;;;;;;;;;;;21.39;20.16;97869.97;5016795;28;998;-77
2023/01/29 00:54:49;;;;;;;;;;;;;;;21.23;20.34;97867.94;5016380;28;1044;-77
2023/01/29 00:57:15;;;;;;;;;;;;;;;21.01;20.76;97876.22;5016143;28;1910;-77
2023/01/29 00:59:40;;;;;;;;;;;;;;;21.58;19.99;97880.34;5016106;28;946;-77
2023/01/29 01:04:50;;;;;;;;;;;;;;;21.66;19.83;97873.25;4998814;28;1276;-77
2023/01/29 01:07:15;;;;;;;;;;;;;;;21.41;20.08;97878.81;5016360;28;961;-77
2023/01/29 01:12:25;;;;;;;;;;;;;;;21.76;20.01;97869.31;4998663;28;1012;-77
2023/01/29 01:14:50;;;;;;;;;;;;;;;21.77;19.77;97870.91;4994030;28;1174;-77
2023/01/29 01:17:16;;;;;;;;;;;;;;;21.95;19.54;97875.22;4994389;28;1918;-77
2023/01/29 01:19:41;;;;;;;;;;;;;;;21.82;19.74;97878.84;4994248;28;1112;-76
2023/01/29 01:22:07;;;;;;;;;;;;;;;21.33;20.20;97875.38;4994157;28;1807;-77
2023/01/29 01:24:32;;;;;;;;;;;;;;;21.12;20.74;97871.06;4994272;28;951;-77
2023/01/29 01:26:58;;;;;;;;;;;;;;;20.93;20.75;97866.31;4977849;28;1272;-76
2023/01/29 01:29:23;;;;;;;;;;;;;;;21.29;20.16;97869.78;4993750;28;957;-77
2023/01/29 01:31:49;;;;;;;;;;;;;;;21.44;20.37;97866.59;4994174;28;953;-77
2023/01/29 01:34:14;;;;;;;;;;;;;;;21.72;19.75;97868.63;4981256;28;1228;-77
2023/01/29 01:36:40;;;;;;;;;;;;;;;21.89;19.84;97871.38;4998395;28;1935;-77
2023/01/29 01:39:05;;;;;;;;;;;;;;;21.51;20.09;97863.59;4997705;28;1333;-76
2023/01/29 01:41:31;;;;;;;;;;;;;;;21.30;20.19;97865.75;4997893;28;1561;-77
2023/01/29 01:44:00;;;;;;;;;;;;;;;21.31;20.29;97866.56;4998016;28;1052;-77
2023/01/29 01:46:29;;;;;;;;;;;;;;;21.50;20.03;97867.63;5014545;28;958;-76
2023/01/29 01:48:56;;;;;;;;;;;;;;;21.78;19.87;97857.53;5019440;28;1166;-77
2023/01/29 01:51:22;;;;;;;;;;;;;;;21.84;19.62;97859.34;5002313;28;954;-77
2023/01/29 01:53:49;;;;;;;;;;;;;;;21.46;19.99;97861.28;5001979;28;926;-76
2023/01/29 01:56:16;;;;;;;;;;;;;;;21.19;20.35;97859.56;5001893;28;1910;-77
2023/01/29 01:58:42;;;;;;;;;;;;;;;21.07;20.49;97868.78;5002337;28;1079;-77
2023/01/29 02:01:08;;;;;;;;;;;;;;;21.44;20.12;97863.75;5002320;28;1162;-77
2023/01/29 02:11:49;;;;;;;;;;;;;;;21.30;20.17;97867.81;4983632;28;1019;-76
2023/01/29 02:14:15;;;;;;;;;;;;;;;21.16;20.40;97877.44;4964716;28;1040;-76
2023/01/29 02:16:40;;;;;;;;;;;;;;;21.72;19.82;97877.13;4997644;28;1981;-77
2023/01/29 02:19:08;;;;;;;;;;;;;;;21.52;19.98;97879.31;4997224;28;1034;-77
2023/01/29 02:21:34;;;;;;;;;;;;;;;21.78;19.61;97883.81;4981368;28;944;-77
2023/01/29 02:24:21;;;;;;;;;;;;;;;21.98;19.51;97880.00;4997199;28;1041;-77
2023/01/29 02:26:53;;;;;;;;;;;;;;;21.47;19.90;97885.53;4980968;28;1095;-77
2023/01/29 02:29:21;;;;;;;;;;;;;;;21.30;20.08;97888.41;4980991;28;990;-77
2023/01/29 02:32:00;;;;;;;;;;;;;;;21.21;20.46;97895.91;4981181;28;1134;-77
2023/01/29 02:34:28;;;;;;;;;;;;;;;21.33;20.33;97884.66;4980858;28;1317;-77
2023/01/29 02:36:56;;;;;;;;;;;;;;;21.43;20.25;97891.28;4997015;28;1971;-77
2023/01/29 02:39:24;;;;;;;;;;;;;;;21.64;20.14;97894.75;5004044;28;1322;-77
2023/01/29 02:41:53;;;;;;;;;;;;;;;21.62;19.93;97895.22;5001135;28;892;-77
2023/01/29 02:44:18;;;;;;;;;;;;;;;21.12;20.39;97899.34;5001018;28;1115;-77
2023/01/29 02:46:50;;;;;;;;;;;;;;;21.10;20.51;97901.06;5019284;28;897;-77
2023/01/29 02:49:16;;;;;;;;;;;;;;;21.35;20.25;97894.75;5001342;28;1228;-77
2023/01/29 02:52:02;;;;;;;;;;;;;;;21.49;20.17;97906.47;5018606;28;931;-76
2023/01/29 02:54:40;;;;;;;;;;;;;;;21.78;19.53;97897.97;4980152;28;1321;-77
2023/01/29 02:57:13;;;;;;;;;;;;;;;21.57;19.85;97904.25;4964347;28;1911;-77
2023/01/29 02:59:40;;;;;;;;;;;;;;;21.64;19.88;97906.88;4980397;28;1121;-77
2023/01/29 03:02:12;;;;;;;;;;;;;;;21.31;20.45;97904.13;4980233;28;1401;-77
2023/01/29 03:04:41;;;;;;;;;;;;;;;21.19;20.57;97904.84;4963917;28;1425;-76
2023/01/29 03:07:09;;;;;;;;;;;;;;;21.54;20.00;97900.25;4980549;28;1009;-77
2023/01/29 03:09:35;;;;;;;;;;;;;;;21.50;19.92;97907.25;4964280;28;1278;-76
2023/01/29 03:12:17;;;;;;;;;;;;;;;21.54;19.96;97911.59;4980201;28;1146;-77
2023/01/29 03:17:30;;;;;;;;;;;;;;;21.28;20.14;97913.47;4966595;28;1910;-77
2023/01/29 03:19:56;;;;;;;;;;;;;;;21.37;20.03;97904.38;4964255;28;1124;-76
2023/01/29 03:22:22;;;;;;;;;;;;;;;21.57;19.89;97912.75;4980250;28;1156;-77
2023/01/29 03:33:42;;;;;;;;;;;;;;;21.92;19.45;97899.59;4960234;28;1192;-76
2023/01/29 03:36:09;;;;;;;;;;;;;;;21.56;19.68;97899.84;4960546;28;976;-77
2023/01/29 03:38:35;;;;;;;;;;;;;;;21.45;19.84;97893.66;4944335;28;2053;-77
2023/01/29 03:41:19;;;;;;;;;;;;;;;21.13;20.26;97900.94;4960425;28;1213;-77
2023/01/29 03:43:56;;;;;;;;;;;;;;;21.65;19.64;97891.47;4960029;28;1106;-77
2023/01/29 03:46:28;;;;;;;;;;;;;;;21.57;19.99;97895.75;4960028;28;1412;-77
2023/01/29 03:49:02;;;;;;;;;;;;;;;21.72;19.64;97899.78;4959975;28;1439;-77
2023/01/29 03:51:32;;;;;;;;;;;;;;;21.97;19.43;97901.09;4944150;28;1532;-78
2023/01/29 03:54:05;;;;;;;;;;;;;;;21.92;19.34;97898.81;4959917;28;1251;-77
2023/01/29 03:56:48;;;;;;;;;;;;;;;21.46;20.11;97900.94;4943499;28;1902;-76
2023/01/29 03:59:17;;;;;;;;;;;;;;;21.06;20.53;97901.13;4960031;28;1120;-76
2023/01/29 04:02:18;;;;;;;;;;;;;;;21.44;19.83;97903.38;4955784;28;1044;-77
2023/01/29 04:04:45;;;;;;;;;;;;;;;21.45;19.82;97899.31;4886898;29;1201;-77
2023/01/29 04:07:12;;;;;;;;;;;;;;;21.78;19.57;97900.00;4887215;29;1335;-77
2023/01/29 04:09:37;;;;;;;;;;;;;;;21.63;19.63;97901.66;4902365;29;1099;-77
2023/01/29 04:12:04;;;;;;;;;;;;;;;21.59;19.51;97904.59;4918319;29;1058;-77
2023/01/29 04:14:30;;;;;;;;;;;;;;;21.30;20.07;97911.03;4887227;29;1300;-77
2023/01/29 04:16:56;;;;;;;;;;;;;;;21.11;20.31;97908.31;4886982;29;1911;-77
2023/01/29 04:19:37;;;;;;;;;;;;;;;21.42;20.12;97906.69;4888758;29;1163;-77
2023/01/29 04:22:06;;;;;;;;;;;;;;;21.40;20.14;97914.00;4902194;29;1012;-77
2023/01/29 04:24:31;;;;;;;;;;;;;;;21.66;19.79;97912.91;4902247;29;1207;-77
2023/01/29 04:27:19;;;;;;;;;;;;;;;21.65;19.73;97919.00;4886761;29;1358;-77
2023/01/29 04:29:50;;;;;;;;;;;;;;;21.48;19.82;97916.22;4917374;29;1140;-77
2023/01/29 04:32:36;;;;;;;;;;;;;;;21.35;19.95;97911.72;4902251;29;1284;-76
2023/01/29 04:35:25;;;;;;;;;;;;;;;21.25;20.10;97914.38;4926115;28;949;-76
2023/01/29 04:38:02;;;;;;;;;;;;;;;21.61;19.73;97904.16;4886640;29;1993;-77
2023/01/29 04:40:31;;;;;;;;;;;;;;;21.65;19.80;97916.94;4937311;29;2115;-77
2023/01/29 04:43:07;;;;;;;;;;;;;;;21.58;19.72;97908.66;4938368;29;1651;-77
2023/01/29 04:45:39;;;;;;;;;;;;;;;21.40;19.86;97923.31;4936631;29;999;-76
2023/01/29 04:48:07;;;;;;;;;;;;;;;21.21;20.30;97919.34;4936961;29;1011;-77
2023/01/29 04:50:35;;;;;;;;;;;;;;;21.05;20.25;97913.69;4921003;29;1003;-78
2023/01/29 04:53:19;;;;;;;;;;;;;;;21.66;19.90;97915.72;4921035;29;1249;-77
2023/01/29 04:55:48;;;;;;;;;;;;;;;21.58;19.73;97917.16;4936254;29;1500;-77
2023/01/29 04:58:17;;;;;;;;;;;;;;;21.76;19.55;97931.63;4936589;29;1910;-77
2023/01/29 05:00:43;;;;;;;;;;;;;;;21.44;19.75;97926.81;4936385;29;1164;-76
2023/01/29 05:03:10;;;;;;;;;;;;;;;21.16;20.42;97919.88;4935152;29;1487;-77
2023/01/29 05:05:35;;;;;;;;;;;;;;;21.20;20.19;97923.41;4936315;29;1029;-77
2023/01/29 05:08:01;;;;;;;;;;;;;;;21.07;20.27;97925.34;4935747;29;1012;-77
2023/01/29 05:10:26;;;;;;;;;;;;;;;21.30;20.09;97922.38;4936660;29;1055;-76
2023/01/29 05:12:55;;;;;;;;;;;;;;;21.49;19.84;97928.31;4936175;29;1042;-76
2023/01/29 05:15:22;;;;;;;;;;;;;;;21.28;20.12;97930.47;4982191;28;969;-77
2023/01/29 05:17:47;;;;;;;;;;;;;;;21.38;19.94;97927.81;4997807;28;1902;-77
2023/01/29 05:20:13;;;;;;;;;;;;;;;21.50;19.95;97924.25;4998730;28;977;-77
2023/01/29 05:22:38;;;;;;;;;;;;;;;21.45;19.78;97927.63;5015916;28;989;-77
2023/01/29 05:25:09;;;;;;;;;;;;;;;21.30;20.05;97922.38;4998744;28;972;-77
2023/01/29 05:30:18;;;;;;;;;;;;;;;21.37;19.96;97935.53;5000399;28;1425;-77
2023/01/29 05:32:44;;;;;;;;;;;;;;;21.67;19.60;97925.00;5016055;28;991;-77
2023/01/29 05:35:09;;;;;;;;;;;;;;;21.66;19.88;97932.72;5016231;28;1002;-77
2023/01/29 05:37:35;;;;;;;;;;;;;;;21.49;20.14;97940.44;5015688;28;1910;-76
2023/01/29 05:40:00;;;;;;;;;;;;;;;21.70;19.52;97939.06;5015897;28;1227;-77
2023/01/29 05:42:26;;;;;;;;;;;;;;;22.00;19.42;97932.13;5016055;28;990;-77
2023/01/29 05:44:51;;;;;;;;;;;;;;;21.54;19.95;97930.59;5015226;28;1501;-77
2023/01/29 05:47:20;;;;;;;;;;;;;;;21.12;20.16;97938.97;5016049;28;954;-77
2023/01/29 05:49:45;;;;;;;;;;;;;;;21.37;20.05;97934.72;5015708;28;976;-77
2023/01/29 05:52:11;;;;;;;;;;;;;;;21.44;20.17;97940.19;4997775;28;981;-76
2023/01/29 05:54:36;;;;;;;;;;;;;;;21.69;19.70;97940.31;5016019;28;850;-76
2023/01/29 05:57:01;;;;;;;;;;;;;;;21.59;19.74;97944.22;5015504;28;1915;-76
2023/01/29 05:59:29;;;;;;;;;;;;;;;21.73;19.77;97937.38;5015518;28;1383;-77
2023/01/29 06:01:56;;;;;;;;;;;;;;;21.93;19.38;97954.22;4997876;28;1200;-76
2023/01/29 06:04:21;;;;;;;;;;;;;;;21.41;19.85;97949.59;4998553;28;969;-77
2023/01/29 06:06:46;;;;;;;;;;;;;;;21.43;20.26;97947.09;5015420;28;1369;-77
2023/01/29 06:09:12;;;;;;;;;;;;;;;21.41;19.90;97950.38;5015844;28;862;-77
2023/01/29 06:11:37;;;;;;;;;;;;;;;21.49;19.91;97956.63;5015694;28;1106;-77
2023/01/29 06:14:04;;;;;;;;;;;;;;;21.45;20.10;97944.59;4996530;28;1470;-77
2023/01/29 06:16:29;;;;;;;;;;;;;;;21.47;20.15;97959.13;5014484;28;1969;-77
2023/01/29 06:18:55;;;;;;;;;;;;;;;21.78;19.48;97957.44;4999710;28;975;-77
2023/01/29 06:21:21;;;;;;;;;;;;;;;21.74;19.50;97955.97;5019291;28;1544;-77
2023/01/29 06:23:46;;;;;;;;;;;;;;;21.71;19.79;97963.31;5018749;28;723;-77
2023/01/29 06:26:12;;;;;;;;;;;;;;;21.46;19.88;97968.88;5018773;28;698;-77
2023/01/29 06:28:38;;;;;;;;;;;;;;;21.11;20.40;97971.34;5018877;28;743;-77
2023/01/29 06:31:03;;;;;;;;;;;;;;;21.68;19.77;97972.69;5018800;28;786;-76
2023/01/29 06:33:29;;;;;;;;;;;;;;;21.77;19.47;97972.84;5018708;28;704;-76
2023/01/29 06:35:57;;;;;;;;;;;;;;;21.77;19.49;97972.84;5019249;28;752;-77
2023/01/29 06:38:23;;;;;;;;;;;;;;;21.82;19.46;97975.16;5000956;28;1985;-77
2023/01/29 06:40:48;;;;;;;;;;;;;;;22.12;19.09;97975.94;5018910;28;1037;-77
2023/01/29 06:43:14;;;;;;;;;;;;;;;22.03;19.12;97984.28;5018978;28;822;-77
2023/01/29 06:46:00;;;;;;;;;;;;;;;22.07;19.35;97990.63;5000752;28;794;-77
2023/01/29 06:48:25;;;;;;;;;;;;;;;21.36;19.74;97982.06;5018223;28;1119;-76
2023/01/29 06:50:52;;;;;;;;;;;;;;;21.17;20.42;97995.03;5018645;28;734;-77
2023/01/29 06:53:18;;;;;;;;;;;;;;;21.08;20.40;97994.84;5001650;28;778;-76
2023/01/29 06:55:45;;;;;;;;;;;;;;;21.35;20.14;97990.97;5018662;28;719;-77
2023/01/29 06:58:11;;;;;;;;;;;;;;;21.55;19.87;97994.47;5015406;28;1906;-77
2023/01/29 07:00:36;;;;;;;;;;;;;;;21.87;19.54;97987.97;5018187;28;758;-76
2023/01/29 07:03:02;;;;;;;;;;;;;;;21.93;19.38;97996.72;5018376;28;692;-77
2023/01/29 07:05:27;;;;;;;;;;;;;;;21.97;19.20;97997.41;5018225;28;743;-77
2023/01/29 07:07:53;;;;;;;;;;;;;;;21.55;19.45;97988.81;5018548;28;751;-77
2023/01/29 07:10:19;;;;;;;;;;;;;;;21.24;19.92;98008.19;5017863;28;820;-77
2023/01/29 07:12:44;;;;;;;;;;;;;;;21.27;20.00;97998.81;5018623;28;771;-77
2023/01/29 07:15:11;;;;;;;;;;;;;;;21.74;19.65;98004.91;5018279;28;891;-77
2023/01/29 07:17:37;;;;;;;;;;;;;;;21.69;19.42;98011.09;5018032;28;1898;-77
2023/01/29 07:20:02;;;;;;;;;;;;;;;21.64;19.75;98011.63;5000297;28;935;-77
2023/01/29 07:22:28;;;;;;;;;;;;;;;21.73;19.44;98011.81;5017921;28;798;-77
2023/01/29 07:24:53;;;;;;;;;;;;;;;21.67;19.76;98007.94;5017941;28;1013;-77
2023/01/29 07:27:19;;;;;;;;;;;;;;;21.78;19.40;98018.97;5017595;28;890;-77
2023/01/29 07:29:44;;;;;;;;;;;;;;;21.29;19.97;98021.81;5017034;28;871;-77
2023/01/29 07:32:09;;;;;;;;;;;;;;;21.35;19.74;98020.09;5017481;28;823;-77
2023/01/29 07:34:35;;;;;;;;;;;;;;;21.41;19.92;98023.19;5018135;28;816;-77
2023/01/29 07:37:00;;;;;;;;;;;;;;;21.80;19.50;98031.44;5017637;28;1910;-77
2023/01/29 07:39:26;;;;;;;;;;;;;;;21.88;19.20;98031.25;5017567;28;1178;-76
2023/01/29 07:41:51;;;;;;;;;;;;;;;21.93;19.27;98025.03;5017708;28;771;-77
2023/01/29 07:44:17;;;;;;;;;;;;;;;21.75;19.28;98037.63;4982686;28;944;-77
2023/01/29 07:46:42;;;;;;;;;;;;;;;21.60;19.52;98053.41;5017850;28;862;-77
2023/01/29 07:49:08;;;;;;;;;;;;;;;21.97;19.19;98042.75;5017141;28;871;-77
2023/01/29 07:51:33;;;;;;;;;;;;;;;21.78;19.21;98045.25;5017403;28;795;-77
2023/01/29 07:53:59;;;;;;;;;;;;;;;22.07;18.67;98052.97;4999995;28;720;-77
2023/01/29 07:56:24;;;;;;;;;;;;;;;21.98;18.98;98059.28;5017235;28;783;-77
2023/01/29 07:58:49;;;;;;;;;;;;;;;21.85;19.29;98056.38;5017275;28;1979;-77
2023/01/29 08:01:15;;;;;;;;;;;;;;;21.24;20.00;98059.13;5017454;28;767;-77
2023/01/29 08:03:40;;;;;;;;;;;;;;;21.16;20.02;98064.19;5016830;28;775;-77
2023/01/29 08:06:06;;;;;;;;;;;;;;;21.31;19.76;98067.50;5017063;28;787;-78
2023/01/29 08:08:31;;;;;;;;;;;;;;;21.58;19.30;98070.84;5017298;28;787;-77
2023/01/29 08:10:59;;;;;;;;;;;;;;;21.91;18.98;98072.84;5017399;28;794;-77
2023/01/29 08:13:24;;;;;;;;;;;;;;;21.95;19.13;98073.53;5017038;28;803;-77
2023/01/29 08:15:50;;;;;;;;;;;;;;;21.63;19.17;98083.69;5017522;28;898;-77
2023/01/29 08:18:15;;;;;;;;;;;;;;;21.62;19.20;98090.59;5016823;28;1898;-77
2023/01/29 08:20:41;;;;;;;;;;;;;;;21.53;19.31;98090.41;4981908;28;1038;-77
2023/01/29 08:23:07;;;;;;;;;;;;;;;21.37;19.81;98096.06;5017067;28;767;-77
2023/01/29 08:25:33;;;;;;;;;;;;;;;21.11;19.79;98095.81;4975524;28;839;-77
2023/01/29 08:27:59;;;;;;;;;;;;;;;21.66;19.40;98102.63;4975272;28;875;-76
2023/01/29 08:30:25;;;;;;;;;;;;;;;21.68;19.46;98094.47;4958895;28;926;-76
2023/01/29 08:32:50;;;;;;;;;;;;;;;21.84;19.40;98094.44;4975139;28;783;-77
2023/01/29 08:35:16;;;;;;;;;;;;;;;21.89;19.00;98103.66;4975292;28;778;-77
2023/01/29 08:37:41;;;;;;;;;;;;;;;21.79;19.18;98109.16;4975203;28;1902;-77
2023/01/29 08:40:09;;;;;;;;;;;;;;;21.56;19.28;98109.34;4975210;28;1408;-77
2023/01/29 08:42:35;;;;;;;;;;;;;;;21.28;20.00;98107.94;4943453;28;924;-77
2023/01/29 08:45:00;;;;;;;;;;;;;;;21.02;20.04;98115.44;4974843;28;883;-77
2023/01/29 08:47:25;;;;;;;;;;;;;;;21.42;19.87;98115.34;4975421;28;879;-76
2023/01/29 08:49:51;;;;;;;;;;;;;;;21.37;19.79;98118.72;4974644;28;1294;-76
2023/01/29 08:52:16;;;;;;;;;;;;;;;21.60;19.57;98110.03;4974947;28;979;-77
2023/01/29 08:54:42;;;;;;;;;;;;;;;21.76;19.16;98107.22;4974700;28;724;-77
2023/01/29 08:57:07;;;;;;;;;;;;;;;21.64;19.45;98118.44;5005705;28;1975;-77
2023/01/29 08:59:33;;;;;;;;;;;;;;;21.89;19.07;98120.66;4981266;28;1019;-77
2023/01/29 09:01:58;;;;;;;;;;;;;;;21.31;19.79;98121.25;5016171;28;818;-77
2023/01/29 09:04:24;;;;;;;;;;;;;;;21.19;19.89;98119.91;5016029;28;723;-77
2023/01/29 09:06:49;;;;;;;;;;;;;;;21.26;19.86;98119.72;5016327;28;1100;-77
2023/01/29 09:09:15;;;;;;;;;;;;;;;21.57;19.60;98119.44;4965438;28;1374;-77
2023/01/29 09:11:40;;;;;;;;;;;;;;;21.75;19.19;98122.59;5016167;28;755;-77
2023/01/29 09:14:06;;;;;;;;;;;;;;;21.64;19.64;98127.75;5015941;28;870;-76
2023/01/29 09:16:31;;;;;;;;;;;;;;;21.58;19.58;98123.84;4998708;28;1902;-77
2023/01/29 09:18:56;;;;;;;;;;;;;;;21.74;19.21;98126.66;4998743;28;876;-77
2023/01/29 09:21:22;;;;;;;;;;;;;;;21.79;19.11;98128.97;5015751;28;854;-77
2023/01/29 09:23:47;;;;;;;;;;;;;;;21.38;19.73;98131.63;4982217;28;1599;-77
2023/01/29 09:26:13;;;;;;;;;;;;;;;21.01;20.09;98136.47;5016501;28;787;-77
2023/01/29 09:28:38;;;;;;;;;;;;;;;21.54;19.56;98131.63;5016253;28;751;-77
2023/01/29 09:31:04;;;;;;;;;;;;;;;21.57;19.49;98128.72;4981160;28;986;-77
2023/01/29 09:33:29;;;;;;;;;;;;;;;21.71;19.49;98127.56;5015397;28;912;-77
2023/01/29 09:35:55;;;;;;;;;;;;;;;21.75;19.22;98116.94;5016072;28;759;-77
2023/01/29 09:38:20;;;;;;;;;;;;;;;21.68;19.27;98122.78;4997113;28;1906;-77
2023/01/29 09:41:04;;;;;;;;;;;;;;;21.39;19.80;98119.03;5015792;28;1323;-77
2023/01/29 09:43:30;;;;;;;;;;;;;;;21.20;19.85;98120.69;5015584;28;829;-77
2023/01/29 09:45:58;;;;;;;;;;;;;;;21.37;20.10;98124.38;5016048;28;897;-76
2023/01/29 09:48:27;;;;;;;;;;;;;;;21.31;19.86;98105.06;5015698;28;723;-77
2023/01/29 09:50:54;;;;;;;;;;;;;;;21.50;19.58;98114.75;4998276;28;835;-77
2023/01/29 09:53:20;;;;;;;;;;;;;;;21.63;19.47;98112.00;4998442;28;861;-77
2023/01/29 09:55:53;;;;;;;;;;;;;;;21.41;19.83;98102.44;5019510;28;822;-77
2023/01/29 09:58:24;;;;;;;;;;;;;;;21.12;20.35;98108.72;5001611;28;1910;-77
2023/01/29 10:01:05;;;;;;;;;;;;;;;21.48;19.83;98105.88;5001847;28;708;-77
2023/01/29 10:03:42;;;;;;;;;;;;;;;21.47;19.98;98106.34;5019117;28;856;-77
2023/01/29 10:06:14;;;;;;;;;;;;;;;21.54;19.87;98106.16;5019350;28;802;-77
2023/01/29 10:08:40;;;;;;;;;;;;;;;21.59;19.62;98103.56;4977507;28;965;-78
2023/01/29 10:11:05;;;;;;;;;;;;;;;21.63;19.63;98095.00;4978043;28;884;-77
2023/01/29 10:13:36;;;;;;;;;;;;;;;21.56;19.62;98101.66;4961397;28;874;-77
2023/01/29 10:16:13;;;;;;;;;;;;;;;21.06;20.46;98087.84;4976695;28;1412;-77
2023/01/29 10:18:43;;;;;;;;;;;;;;;21.10;20.14;98099.09;4993974;28;1999;-77
2023/01/29 10:21:14;;;;;;;;;;;;;;;21.51;20.04;98093.69;4994119;28;699;-76
2023/01/29 10:23:50;;;;;;;;;;;;;;;21.49;19.71;98092.50;4977308;28;994;-77
2023/01/29 10:26:17;;;;;;;;;;;;;;;21.64;19.55;98092.97;4978007;28;858;-77
2023/01/29 10:28:45;;;;;;;;;;;;;;;21.71;19.36;98092.78;4977649;28;813;-77
2023/01/29 10:31:31;;;;;;;;;;;;;;;22.14;18.98;98089.66;4977508;28;760;-76
2023/01/29 10:33:58;;;;;;;;;;;;;;;21.65;19.37;98088.88;4993019;28;895;-77
2023/01/29 10:36:34;;;;;;;;;;;;;;;21.37;19.78;98088.38;4993440;28;803;-76
2023/01/29 10:39:00;;;;;;;;;;;;;;;21.35;19.85;98087.19;4996900;28;1053;-77
2023/01/29 10:41:28;;;;;;;;;;;;;;;21.57;19.74;98096.78;4999367;28;826;-76
2023/01/29 10:44:00;;;;;;;;;;;;;;;21.69;19.54;98093.22;4998775;28;851;-77
2023/01/29 10:46:33;;;;;;;;;;;;;;;21.56;19.54;98087.50;4999100;28;775;-77
2023/01/29 10:48:58;;;;;;;;;;;;;;;21.41;19.77;98077.75;4981714;28;680;-77
2023/01/29 10:51:50;;;;;;;;;;;;;;;21.36;19.82;98074.66;4998770;28;869;-77
2023/01/29 10:54:20;;;;;;;;;;;;;;;21.64;19.59;98075.97;4957704;29;916;-76
2023/01/29 10:56:52;;;;;;;;;;;;;;;21.55;19.70;98074.56;4957903;29;1906;-77
2023/01/29 10:59:20;;;;;;;;;;;;;;;21.76;19.49;98073.22;4957659;29;1011;-77
2023/01/29 11:01:45;;;;;;;;;;;;;;;21.39;19.85;98060.41;4957904;29;858;-77
2023/01/29 11:04:11;;;;;;;;;;;;;;;21.07;20.09;98059.13;4957535;28;1486;-77
2023/01/29 11:06:37;;;;;;;;;;;;;;;21.11;20.19;98061.06;4957698;29;734;-77
2023/01/29 11:09:05;;;;;;;;;;;;;;;21.63;19.74;98061.03;4957291;29;1409;-77
2023/01/29 11:11:30;;;;;;;;;;;;;;;21.49;19.84;98064.22;4957356;29;1071;-77
2023/01/29 11:13:56;;;;;;;;;;;;;;;21.57;19.75;98060.75;4957363;28;876;-77
2023/01/29 11:16:21;;;;;;;;;;;;;;;21.52;19.43;98063.34;4957296;29;1662;-76
2023/01/29 11:18:48;;;;;;;;;;;;;;;21.69;19.29;98058.44;4957064;29;1978;-76
2023/01/29 11:21:14;;;;;;;;;;;;;;;21.29;19.95;98062.22;4957389;29;831;-77
2023/01/29 11:23:39;;;;;;;;;;;;;;;21.37;19.90;98060.06;4957370;29;1029;-77
2023/01/29 11:26:05;;;;;;;;;;;;;;;21.15;20.21;98059.75;4957561;29;820;-76
2023/01/29 11:28:38;;;;;;;;;;;;;;;21.61;19.24;98059.88;4957076;29;1451;-77
2023/01/29 11:31:13;;;;;;;;;;;;;;;21.60;19.47;98053.41;4977762;28;922;-77
2023/01/29 11:33:39;;;;;;;;;;;;;;;21.82;19.30;98054.44;4981085;28;860;-77
2023/01/29 11:36:18;;;;;;;;;;;;;;;21.90;18.97;98052.22;4998047;28;826;-77
2023/01/29 11:38:44;;;;;;;;;;;;;;;21.44;19.46;98044.91;4997858;28;1910;-77
2023/01/29 11:41:13;;;;;;;;;;;;;;;21.26;20.07;98051.81;4997782;28;756;-76
2023/01/29 11:43:39;;;;;;;;;;;;;;;21.02;20.09;98053.19;4980297;28;720;-77
2023/01/29 11:46:11;;;;;;;;;;;;;;;21.39;19.60;98053.94;4998094;28;772;-77
2023/01/29 11:48:50;;;;;;;;;;;;;;;21.59;19.39;98060.31;4980401;28;748;-77
2023/01/29 11:51:26;;;;;;;;;;;;;;;21.74;19.31;98058.69;4980977;28;871;-76
2023/01/29 11:53:52;;;;;;;;;;;;;;;22.16;18.82;98049.53;4997598;28;791;-76
2023/01/29 11:56:19;;;;;;;;;;;;;;;21.76;19.08;98056.25;4998421;28;771;-77
2023/01/29 11:58:45;;;;;;;;;;;;;;;22.04;18.74;98053.88;4997940;28;1918;-77
2023/01/29 12:01:10;;;;;;;;;;;;;;;22.16;18.65;98055.97;4980496;28;852;-77
2023/01/29 12:03:38;;;;;;;;;;;;;;;21.56;19.16;98052.72;4997561;28;810;-77
2023/01/29 12:06:16;;;;;;;;;;;;;;;21.47;19.43;98049.72;4980367;28;784;-77
2023/01/29 12:08:42;;;;;;;;;;;;;;;21.04;19.81;98057.19;4979798;28;898;-77
2023/01/29 12:11:11;;;;;;;;;;;;;;;21.57;19.25;98048.66;4997620;28;768;-77
2023/01/29 12:13:39;;;;;;;;;;;;;;;21.44;19.76;98056.25;4980092;28;756;-76
2023/01/29 12:16:19;;;;;;;;;;;;;;;21.65;19.12;98044.38;4978488;28;1250;-76
2023/01/29 12:18:49;;;;;;;;;;;;;;;21.64;19.45;98053.31;4979851;28;1910;-77
2023/01/29 12:21:30;;;;;;;;;;;;;;;21.89;19.09;98053.47;4979765;28;823;-77
2023/01/29 12:24:03;;;;;;;;;;;;;;;21.59;19.48;98057.47;4996813;28;739;-77
2023/01/29 12:26:31;;;;;;;;;;;;;;;21.21;19.89;98066.47;4980136;28;919;-77
2023/01/29 12:29:12;;;;;;;;;;;;;;;20.97;20.01;98067.84;4997003;28;787;-77
2023/01/29 12:31:56;;;;;;;;;;;;;;;21.57;19.27;98066.44;4996952;28;831;-77
2023/01/29 12:34:21;;;;;;;;;;;;;;;21.46;19.37;98070.78;4996909;28;720;-77
2023/01/29 12:36:51;;;;;;;;;;;;;;;21.54;19.47;98075.00;4997296;28;1972;-77
2023/01/29 12:39:17;;;;;;;;;;;;;;;21.71;19.23;98072.94;4980061;28;1233;-77
2023/01/29 12:42:03;;;;;;;;;;;;;;;21.33;19.81;98085.59;4996648;28;886;-77
2023/01/29 12:44:33;;;;;;;;;;;;;;;21.14;19.69;98077.97;4996178;28;1061;-76
2023/01/29 12:46:59;;;;;;;;;;;;;;;20.96;19.89;98055.75;4996738;28;767;-77
2023/01/29 12:49:25;;;;;;;;;;;;;;;21.67;19.37;98092.88;4979365;28;702;-76
2023/01/29 12:51:55;;;;;;;;;;;;;;;21.72;19.11;98095.19;4979448;28;844;-77
2023/01/29 12:54:23;;;;;;;;;;;;;;;21.57;19.46;98096.78;4996436;28;787;-77
2023/01/29 12:56:52;;;;;;;;;;;;;;;21.13;19.74;98103.84;4979512;28;1902;-77
2023/01/29 12:59:37;;;;;;;;;;;;;;;21.19;19.75;98102.91;4979399;28;795;-77
2023/01/29 13:02:22;;;;;;;;;;;;;;;21.38;19.54;98106.13;4996125;28;962;-77
2023/01/29 13:04:48;;;;;;;;;;;;;;;21.41;19.45;98105.28;4995282;28;1604;-76
2023/01/29 13:07:15;;;;;;;;;;;;;;;21.40;19.54;98106.47;4996558;28;1037;-76
2023/01/29 13:09:41;;;;;;;;;;;;;;;21.58;19.27;98104.03;4979456;28;725;-77
2023/01/29 13:12:10;;;;;;;;;;;;;;;21.68;19.31;98105.78;4996951;28;1098;-76
2023/01/29 13:14:50;;;;;;;;;;;;;;;21.51;19.69;98107.03;4979551;28;832;-77
2023/01/29 13:17:22;;;;;;;;;;;;;;;21.41;19.77;98113.75;4977894;28;1910;-77
2023/01/29 13:19:51;;;;;;;;;;;;;;;21.23;19.69;98109.28;4979657;28;736;-77
2023/01/29 13:22:27;;;;;;;;;;;;;;;21.26;19.81;98114.06;4979115;28;882;-77
2023/01/29 13:24:53;;;;;;;;;;;;;;;21.30;19.73;98114.81;4974091;28;987;-76
2023/01/29 13:27:23;;;;;;;;;;;;;;;21.52;19.54;98112.25;4974871;28;846;-77
2023/01/29 13:29:48;;;;;;;;;;;;;;;21.66;19.50;98113.13;4961284;28;914;-76
2023/01/29 13:32:18;;;;;;;;;;;;;;;21.69;19.49;98115.09;4962696;28;1169;-76
2023/01/29 13:34:44;;;;;;;;;;;;;;;21.32;19.81;98115.16;4978394;28;817;-77
2023/01/29 13:37:10;;;;;;;;;;;;;;;21.02;20.13;98116.22;4962483;28;1899;-77
2023/01/29 13:39:42;;;;;;;;;;;;;;;21.39;19.71;98116.22;4962389;28;1118;-77